createdAt,value
2023-03-04T00:02:24.972Z,20.50
2023-03-04T00:04:53.192Z,20.80
2023-03-04T00:07:21.564Z,21.80
2023-03-04T00:09:53.450Z,19.90
2023-03-04T00:12:21.917Z,20.20
2023-03-04T00:14:50.244Z,21.90
2023-03-04T00:17:26.709Z,20.50
2023-03-04T00:19:55.523Z,23.00
2023-03-04T00:22:24.240Z,20.90
2023-03-04T00:24:55.201Z,22.80
2023-03-04T00:27:23.489Z,21.80
2023-03-04T00:29:52.156Z,22.80
2023-03-04T00:32:20.645Z,24.20
2023-03-04T00:34:49.406Z,20.20
2023-03-04T00:37:18.418Z,23.00
2023-03-04T00:39:46.848Z,24.30
2023-03-04T00:42:16.917Z,25.10
2023-03-04T00:44:46.316Z,22.50
2023-03-04T00:47:14.547Z,22.10
2023-03-04T00:49:42.773Z,21.30
2023-03-04T00:52:11.123Z,22.70
2023-03-04T00:54:43.203Z,19.30
2023-03-04T00:57:11.526Z,21.50
2023-03-04T00:59:40.972Z,21.70
2023-03-04T01:02:11.598Z,22.50
2023-03-04T01:04:42.058Z,20.30
2023-03-04T01:07:11.683Z,21.70
2023-03-04T01:09:45.541Z,19.60
2023-03-04T01:12:14.327Z,22.60
2023-03-04T01:14:43.097Z,22.00
2023-03-04T01:17:17.822Z,25.60
2023-03-04T01:19:46.106Z,22.40
2023-03-04T01:22:16.974Z,21.90
2023-03-04T01:24:49.597Z,23.80
2023-03-04T01:27:17.877Z,22.60
2023-03-04T01:29:46.299Z,22.70
2023-03-04T01:32:14.979Z,26.30
2023-03-04T01:34:43.992Z,20.40
2023-03-04T01:37:13.963Z,24.60
2023-03-04T01:39:42.422Z,24.10
2023-03-04T01:42:17.559Z,21.80
2023-03-04T01:44:45.893Z,23.70
2023-03-04T01:47:19.324Z,22.80
2023-03-04T01:49:53.581Z,24.80
2023-03-04T01:52:22.044Z,22.00
2023-03-04T01:54:51.728Z,23.00
2023-03-04T01:57:22.451Z,23.50
2023-03-04T02:00:24.772Z,29.20
2023-03-04T02:02:55.581Z,24.30
2023-03-04T02:05:24.827Z,24.70
2023-03-04T02:07:53.244Z,26.30
2023-03-04T02:10:24.485Z,29.10
2023-03-04T02:12:53.110Z,26.60
2023-03-04T02:15:21.571Z,24.40
2023-03-04T02:17:50.220Z,26.30
2023-03-04T02:20:35.912Z,27.10
2023-03-04T02:23:07.470Z,26.00
2023-03-04T02:25:44.578Z,26.20
2023-03-04T02:28:13.288Z,25.90
2023-03-04T02:30:41.621Z,23.70
2023-03-04T02:33:15.083Z,27.50
2023-03-04T02:35:43.405Z,28.60
2023-03-04T02:38:12.607Z,26.70
2023-03-04T02:40:48.396Z,27.60
2023-03-04T02:43:16.630Z,30.00
2023-03-04T02:45:49.742Z,24.50
2023-03-04T02:48:20.854Z,27.90
2023-03-04T02:50:50.816Z,29.90
2023-03-04T02:53:20.855Z,29.10
2023-03-04T02:55:49.749Z,31.40
2023-03-04T02:58:19.035Z,28.50
2023-03-04T03:00:50.204Z,26.40
2023-03-04T03:03:20.808Z,28.10
2023-03-04T03:05:49.905Z,26.90
2023-03-04T03:08:19.355Z,31.50
2023-03-04T03:10:49.295Z,28.10
2023-03-04T03:13:18.097Z,25.60
2023-03-04T03:15:49.952Z,29.00
2023-03-04T03:18:18.672Z,28.00
2023-03-04T03:20:47.228Z,27.80
2023-03-04T03:23:18.188Z,28.50
2023-03-04T03:25:47.243Z,29.90
2023-03-04T03:28:17.466Z,26.30
2023-03-04T03:30:45.724Z,29.00
2023-03-04T03:33:14.214Z,30.20
2023-03-04T03:35:42.748Z,30.30
2023-03-04T03:38:11.067Z,27.20
2023-03-04T03:40:40.776Z,28.80
2023-03-04T03:43:09.211Z,28.30
2023-03-04T03:45:37.702Z,32.50
2023-03-04T03:48:06.842Z,29.20
2023-03-04T03:50:35.240Z,25.70
2023-03-04T03:53:03.927Z,29.90
2023-03-04T03:55:32.624Z,26.60
2023-03-04T03:58:01.056Z,27.70
2023-03-04T04:00:29.391Z,27.10
2023-03-04T04:02:59.066Z,27.60
2023-03-04T04:05:27.727Z,31.20
2023-03-04T04:07:59.577Z,27.60
2023-03-04T04:10:29.671Z,27.50
2023-03-04T04:12:58.004Z,26.00
2023-03-04T04:15:26.434Z,22.00
2023-03-04T04:17:55.214Z,26.80
2023-03-04T04:20:26.099Z,27.50
2023-03-04T04:22:56.470Z,24.60
2023-03-04T04:25:25.795Z,26.00
2023-03-04T04:27:54.869Z,25.50
2023-03-04T04:30:23.405Z,26.50
2023-03-04T04:32:54.140Z,27.50
2023-03-04T04:35:22.609Z,26.60
2023-03-04T04:37:51.237Z,30.70
2023-03-04T04:40:20.138Z,28.20
2023-03-04T04:42:48.897Z,24.60
2023-03-04T04:45:17.352Z,26.00
2023-03-04T04:47:46.500Z,26.00
2023-03-04T04:50:15.950Z,25.30
2023-03-04T04:52:44.369Z,23.60
2023-03-04T04:55:12.794Z,27.00
2023-03-04T04:57:41.500Z,29.10
2023-03-04T05:00:10.419Z,27.10
2023-03-04T05:02:39.852Z,23.80
2023-03-04T05:05:08.458Z,25.90
2023-03-04T05:07:38.821Z,23.90
2023-03-04T05:10:08.999Z,24.20
2023-03-04T05:12:37.686Z,22.70
2023-03-04T05:15:06.510Z,25.10
2023-03-04T05:17:36.416Z,23.00
2023-03-04T05:20:07.381Z,25.70
2023-03-04T05:22:36.952Z,28.60
2023-03-04T05:25:05.802Z,26.10
2023-03-04T05:27:34.470Z,25.20
2023-03-04T05:30:02.804Z,22.60
2023-03-04T05:32:31.252Z,25.90
2023-03-04T05:35:00.110Z,28.20
2023-03-04T05:37:28.386Z,25.50
2023-03-04T05:39:56.840Z,24.10
2023-03-04T05:42:25.556Z,24.80
2023-03-04T05:44:53.938Z,26.10
2023-03-04T05:47:22.339Z,26.70
2023-03-04T05:49:51.263Z,23.80
2023-03-04T05:52:19.892Z,25.60
2023-03-04T05:54:48.329Z,27.10
2023-03-04T05:57:17.505Z,24.90
2023-03-04T05:59:45.756Z,24.40
2023-03-04T06:02:13.983Z,27.50
2023-03-04T06:04:42.853Z,24.00
2023-03-04T06:07:12.742Z,24.70
2023-03-04T06:09:41.687Z,24.60
2023-03-04T06:12:10.399Z,27.20
2023-03-04T06:14:42.883Z,23.40
2023-03-04T06:17:12.032Z,22.40
2023-03-04T06:19:41.962Z,28.70
2023-03-04T06:22:12.604Z,25.20
2023-03-04T06:24:41.157Z,28.70
2023-03-04T06:27:13.666Z,27.10
2023-03-04T06:29:42.480Z,23.70
2023-03-04T06:32:11.059Z,26.50
2023-03-04T06:34:39.702Z,26.20
2023-03-04T06:37:07.980Z,29.50
2023-03-04T06:39:36.796Z,27.00
2023-03-04T06:42:05.648Z,25.70
2023-03-04T06:44:33.864Z,26.30
2023-03-04T06:47:03.074Z,33.20
2023-03-04T06:49:31.450Z,22.90
2023-03-04T06:51:59.725Z,28.20
2023-03-04T06:54:32.847Z,28.20
2023-03-04T06:57:01.118Z,29.40
2023-03-04T06:59:29.717Z,28.90
2023-03-04T07:01:58.498Z,30.30
2023-03-04T07:04:26.861Z,29.20
2023-03-04T07:06:55.591Z,33.80
2023-03-04T07:09:23.819Z,32.30
2023-03-04T07:11:52.565Z,30.20
2023-03-04T07:14:28.124Z,30.90
2023-03-04T07:18:05.354Z,33.40
2023-03-04T07:20:33.881Z,33.50
2023-03-04T07:23:02.691Z,35.20
2023-03-04T07:25:31.171Z,33.40
2023-03-04T07:27:59.448Z,32.80
2023-03-04T07:30:28.189Z,33.40
2023-03-04T07:32:59.252Z,31.40
2023-03-04T07:35:27.833Z,30.30
2023-03-04T07:37:56.576Z,35.30
2023-03-04T07:40:25.238Z,35.50
2023-03-04T07:42:55.183Z,35.90
2023-03-04T07:45:28.712Z,34.00
2023-03-04T07:47:58.651Z,34.00
2023-03-04T07:50:27.010Z,31.90
2023-03-04T07:52:55.515Z,38.60
2023-03-04T07:55:23.977Z,38.20
2023-03-04T07:57:52.262Z,33.80
2023-03-04T08:00:20.884Z,36.10
2023-03-04T08:02:49.405Z,35.80
2023-03-04T08:05:17.813Z,32.30
2023-03-04T08:07:47.467Z,32.90
2023-03-04T08:10:15.805Z,36.10
2023-03-04T08:12:45.277Z,33.00
2023-03-04T08:15:13.710Z,31.50
2023-03-04T08:17:43.577Z,31.30
2023-03-04T08:20:12.961Z,33.00
2023-03-04T08:22:41.360Z,35.40
2023-03-04T08:25:09.976Z,32.50
2023-03-04T08:27:39.584Z,29.20
2023-03-04T08:30:08.524Z,32.70
2023-03-04T08:32:37.539Z,31.70
2023-03-04T08:35:06.233Z,35.20
2023-03-04T08:37:39.300Z,34.60
2023-03-04T08:40:08.309Z,34.80
2023-03-04T08:42:36.786Z,32.20
2023-03-04T08:45:05.597Z,29.60
2023-03-04T08:47:34.130Z,30.10
2023-03-04T08:50:02.389Z,31.80
2023-03-04T08:52:31.450Z,28.00
2023-03-04T08:55:04.713Z,31.10
2023-03-04T08:57:34.438Z,30.80
2023-03-04T09:00:03.440Z,28.00
2023-03-04T09:02:32.379Z,32.30
2023-03-04T09:05:00.689Z,30.10
2023-03-04T09:07:29.942Z,33.90
2023-03-04T09:09:59.123Z,31.60
2023-03-04T09:12:31.537Z,31.40
2023-03-04T09:15:11.143Z,27.60
2023-03-04T09:17:40.636Z,25.30
2023-03-04T09:20:11.219Z,28.50
2023-03-04T09:22:40.532Z,26.30
2023-03-04T09:25:12.851Z,28.50
2023-03-04T09:27:41.711Z,27.60
2023-03-04T09:30:10.725Z,28.00
2023-03-04T09:32:39.070Z,25.10
2023-03-04T09:35:08.265Z,28.90
2023-03-04T09:37:37.281Z,27.70
2023-03-04T09:40:08.365Z,27.40
2023-03-04T09:42:44.269Z,27.60
2023-03-04T09:45:21.606Z,24.90
2023-03-04T09:47:51.298Z,24.50
2023-03-04T09:50:20.198Z,24.80
2023-03-04T09:53:21.489Z,24.10
2023-03-04T09:55:51.216Z,24.40
2023-03-04T09:58:45.082Z,23.60
2023-03-04T10:01:35.633Z,28.40
2023-03-04T10:04:18.071Z,25.70
2023-03-04T10:06:51.693Z,23.10
2023-03-04T10:09:42.117Z,24.50
2023-03-04T10:12:15.308Z,22.90
2023-03-04T10:14:51.394Z,27.50
2023-03-04T10:17:41.306Z,25.00
2023-03-04T10:20:26.463Z,27.10
2023-03-04T10:22:59.228Z,25.10
2023-03-04T10:25:32.512Z,24.90
2023-03-04T10:28:12.959Z,25.20
2023-03-04T10:30:57.038Z,24.40
2023-03-04T10:33:32.851Z,24.90
2023-03-04T10:36:01.591Z,26.20
2023-03-04T10:38:39.268Z,24.00
2023-03-04T10:41:15.754Z,22.60
2023-03-04T10:44:00.442Z,24.90
2023-03-04T10:46:30.594Z,25.70
2023-03-04T10:48:59.141Z,22.20
2023-03-04T10:51:28.884Z,24.20
2023-03-04T10:54:22.802Z,21.70
2023-03-04T10:57:05.696Z,22.50
2023-03-04T10:59:36.418Z,22.60
2023-03-04T11:02:29.169Z,23.10
2023-03-04T11:05:18.389Z,22.50
2023-03-04T11:07:57.814Z,21.80
2023-03-04T11:10:36.431Z,16.00
2023-03-04T11:13:11.707Z,18.30
2023-03-04T11:15:59.582Z,19.50
2023-03-04T11:18:40.103Z,18.90
2023-03-04T11:21:08.654Z,16.80
2023-03-04T11:23:47.178Z,18.00
2023-03-04T11:26:17.883Z,20.60
2023-03-04T11:28:47.754Z,15.70
2023-03-04T11:31:21.727Z,17.60
2023-03-04T11:33:52.470Z,16.50
2023-03-04T11:36:26.240Z,19.30
2023-03-04T11:38:54.697Z,20.00
2023-03-04T11:41:32.271Z,18.00
2023-03-04T11:44:00.556Z,25.60
2023-03-04T11:46:33.298Z,18.30
2023-03-04T11:49:04.780Z,18.90
2023-03-04T11:52:04.854Z,14.90
2023-03-04T11:54:52.974Z,16.10
2023-03-04T11:57:33.614Z,16.30
2023-03-04T12:00:22.015Z,19.00
2023-03-04T12:03:22.869Z,20.90
2023-03-04T12:06:13.765Z,20.30
2023-03-04T12:08:57.586Z,19.60
2023-03-04T12:11:53.870Z,16.90
2023-03-04T12:14:51.566Z,16.00
2023-03-04T12:17:46.398Z,13.20
2023-03-04T12:20:46.161Z,16.40
2023-03-04T12:23:19.401Z,18.90
2023-03-04T12:25:50.998Z,15.70
2023-03-04T12:28:54.565Z,13.20
2023-03-04T12:31:42.212Z,13.60
2023-03-04T12:34:30.790Z,14.10
2023-03-04T12:37:38.249Z,15.00
2023-03-04T12:40:19.738Z,13.20
2023-03-04T12:43:18.048Z,15.90
2023-03-04T12:46:16.103Z,15.70
2023-03-04T12:49:08.211Z,12.70
2023-03-04T12:51:55.283Z,18.60
2023-03-04T12:54:40.967Z,18.60
2023-03-04T12:57:13.834Z,15.80
2023-03-04T12:59:59.957Z,16.50
2023-03-04T13:02:40.617Z,14.30
2023-03-04T13:05:31.825Z,16.80
2023-03-04T13:08:32.602Z,16.50
2023-03-04T13:11:27.612Z,22.40
2023-03-04T13:14:15.076Z,18.20
2023-03-04T13:16:49.485Z,18.80
2023-03-04T13:19:46.552Z,19.30
2023-03-04T13:22:38.581Z,20.40
2023-03-04T13:25:43.040Z,20.70
2023-03-04T13:28:18.831Z,18.20
2023-03-04T13:30:57.279Z,18.30
2023-03-04T13:33:26.017Z,22.40
2023-03-04T13:35:54.860Z,19.80
2023-03-04T13:38:29.612Z,20.70
2023-03-04T13:41:15.314Z,18.90
2023-03-04T13:43:48.290Z,18.80
2023-03-04T13:46:19.870Z,20.70
2023-03-04T13:48:52.192Z,18.00
2023-03-04T13:51:44.201Z,17.50
2023-03-04T13:54:30.144Z,19.40
2023-03-04T13:57:01.136Z,19.10
2023-03-04T13:59:34.866Z,17.20
2023-03-04T14:02:15.890Z,21.30
2023-03-04T14:04:45.682Z,22.60
2023-03-04T14:07:21.776Z,18.80
2023-03-04T14:10:05.355Z,17.00
2023-03-04T14:12:35.939Z,16.40
2023-03-04T14:15:31.233Z,16.50
2023-03-04T14:18:00.350Z,18.10
2023-03-04T14:20:35.621Z,18.10
2023-03-04T14:23:28.685Z,16.50
2023-03-04T14:26:22.483Z,18.20
2023-03-04T14:28:52.373Z,17.70
2023-03-04T14:31:22.121Z,17.60
2023-03-04T14:33:52.693Z,15.80
2023-03-04T14:36:22.150Z,17.80
2023-03-04T14:38:54.987Z,16.60
2023-03-04T14:41:26.616Z,16.90
2023-03-04T14:44:04.354Z,15.10
2023-03-04T14:46:41.004Z,19.00
2023-03-04T14:49:14.176Z,18.90
2023-03-04T14:51:52.453Z,20.10
2023-03-04T14:54:43.879Z,18.90
2023-03-04T14:57:26.930Z,18.50
2023-03-04T14:59:55.996Z,17.60
2023-03-04T15:02:31.620Z,19.00
2023-03-04T15:05:31.645Z,17.30
2023-03-04T15:08:17.717Z,15.50
2023-03-04T15:11:00.731Z,15.30
2023-03-04T15:13:50.143Z,14.30
2023-03-04T15:16:23.666Z,15.50
2023-03-04T15:19:25.186Z,17.80
2023-03-04T15:22:03.262Z,18.70
2023-03-04T15:24:32.334Z,19.10
2023-03-04T15:27:07.898Z,17.70
2023-03-04T15:29:37.642Z,16.60
2023-03-04T15:32:12.198Z,16.10
2023-03-04T15:34:41.299Z,17.30
2023-03-04T15:37:13.026Z,17.50
2023-03-04T15:39:41.613Z,17.30
2023-03-04T15:42:10.734Z,15.20
2023-03-04T15:44:40.455Z,18.10
2023-03-04T15:47:13.152Z,16.20
2023-03-04T15:49:47.779Z,14.80
2023-03-04T15:52:18.002Z,17.90
2023-03-04T15:54:46.948Z,16.60
2023-03-04T15:57:26.472Z,14.70
2023-03-04T15:59:54.973Z,13.50
2023-03-04T16:02:24.386Z,15.70
2023-03-04T16:04:53.069Z,15.30
2023-03-04T16:07:29.670Z,13.30
2023-03-04T16:10:05.892Z,16.80
2023-03-04T16:12:34.269Z,14.70
2023-03-04T16:15:17.032Z,15.60
2023-03-04T16:17:47.228Z,17.80
2023-03-04T16:20:17.806Z,14.40
2023-03-04T16:22:47.245Z,15.60
2023-03-04T16:25:18.723Z,17.40
2023-03-04T16:27:49.216Z,17.00
2023-03-04T16:30:20.134Z,18.20
2023-03-04T16:32:48.527Z,15.90
2023-03-04T16:35:17.805Z,17.70
2023-03-04T16:37:46.058Z,16.00
2023-03-04T16:40:17.411Z,15.50
2023-03-04T16:42:46.766Z,16.70
2023-03-04T16:45:19.361Z,16.90
2023-03-04T16:47:47.692Z,18.30
2023-03-04T16:50:22.046Z,17.10
2023-03-04T16:52:50.933Z,18.10
2023-03-04T16:55:23.439Z,17.20
2023-03-04T16:57:52.431Z,15.30
2023-03-04T17:00:21.962Z,19.90
2023-03-04T17:02:58.205Z,17.60
2023-03-04T17:05:28.969Z,15.10
2023-03-04T17:07:57.563Z,15.70
2023-03-04T17:10:28.388Z,16.90
2023-03-04T17:12:57.820Z,17.60
2023-03-04T17:15:27.332Z,18.70
2023-03-04T17:17:55.734Z,15.80
2023-03-04T17:20:28.967Z,18.80
2023-03-04T17:22:58.666Z,19.50
2023-03-04T17:25:26.971Z,17.70
2023-03-04T17:27:56.023Z,16.10
2023-03-04T17:30:24.832Z,16.20
2023-03-04T17:32:54.395Z,14.60
2023-03-04T17:35:22.776Z,15.90
2023-03-04T17:37:51.210Z,16.00
2023-03-04T17:40:20.225Z,15.00
2023-03-04T17:42:48.927Z,13.40
2023-03-04T17:45:19.856Z,13.90
2023-03-04T17:47:48.762Z,15.00
2023-03-04T17:50:17.419Z,14.70
2023-03-04T17:52:46.291Z,15.80
2023-03-04T17:55:15.119Z,15.40
2023-03-04T17:57:43.432Z,16.30
2023-03-04T18:00:12.662Z,13.40
2023-03-04T18:02:41.259Z,16.90
2023-03-04T18:05:11.529Z,16.00
2023-03-04T18:07:39.945Z,13.60
2023-03-04T18:10:12.368Z,14.60
2023-03-04T18:12:40.906Z,15.10
2023-03-04T18:15:09.619Z,14.80
2023-03-04T18:17:38.384Z,17.20
2023-03-04T18:20:07.549Z,15.40
2023-03-04T18:22:36.953Z,13.70
2023-03-04T18:25:06.327Z,13.50
2023-03-04T18:27:39.954Z,15.10
2023-03-04T18:30:09.864Z,12.50
2023-03-04T18:32:51.083Z,14.70
2023-03-04T18:35:21.962Z,14.70
2023-03-04T18:37:51.026Z,14.10
2023-03-04T18:40:19.639Z,12.00
2023-03-04T18:42:48.907Z,13.20
2023-03-04T18:45:21.598Z,14.50
2023-03-04T18:47:51.532Z,13.30
2023-03-04T18:50:23.257Z,17.70
2023-03-04T18:52:54.881Z,13.30
2023-03-04T18:55:23.226Z,11.30
2023-03-04T18:57:52.904Z,13.60
2023-03-04T19:00:22.702Z,13.60
2023-03-04T19:03:02.021Z,13.00
2023-03-04T19:05:30.826Z,13.80
2023-03-04T19:08:01.611Z,15.20
2023-03-04T19:10:30.358Z,11.70
2023-03-04T19:13:01.220Z,13.10
2023-03-04T19:15:30.166Z,14.40
2023-03-04T19:17:59.154Z,14.80
2023-03-04T19:20:30.025Z,12.90
2023-03-04T19:22:58.430Z,12.30
2023-03-04T19:25:26.872Z,14.00
2023-03-04T19:27:56.622Z,14.70
2023-03-04T19:30:26.747Z,12.20
2023-03-04T19:34:11.157Z,16.70
2023-03-04T19:36:39.449Z,11.60
2023-03-04T19:39:09.129Z,13.60
2023-03-04T19:41:37.658Z,11.80
2023-03-04T19:44:09.063Z,13.20
2023-03-04T19:46:38.178Z,17.60
2023-03-04T19:49:10.223Z,14.70
2023-03-04T19:51:39.735Z,14.30
2023-03-04T19:54:08.173Z,12.00
2023-03-04T19:56:39.181Z,12.50
2023-03-04T19:59:08.450Z,14.60
2023-03-04T20:01:37.715Z,12.50
2023-03-04T20:04:09.077Z,12.70
2023-03-04T20:06:42.564Z,11.30
2023-03-04T20:09:11.469Z,12.60
2023-03-04T20:11:54.970Z,13.30
2023-03-04T20:14:28.230Z,12.70
2023-03-04T20:17:02.758Z,12.00
2023-03-04T20:19:32.397Z,12.50
2023-03-04T20:22:01.500Z,13.00
2023-03-04T20:24:30.259Z,11.30
2023-03-04T20:27:01.927Z,15.40
2023-03-04T20:29:30.964Z,13.30
2023-03-04T20:31:59.556Z,11.10
2023-03-04T20:34:28.860Z,13.10
2023-03-04T20:36:59.928Z,13.80
2023-03-04T20:39:30.102Z,10.20
2023-03-04T20:41:59.572Z,10.70
2023-03-04T20:44:29.947Z,11.10
2023-03-04T20:46:59.046Z,10.60
2023-03-04T20:49:28.137Z,11.40
2023-03-04T20:52:06.667Z,13.90
2023-03-04T20:54:36.404Z,10.40
2023-03-04T20:57:08.234Z,12.30
2023-03-04T20:59:39.573Z,7.10
2023-03-04T21:02:14.674Z,4.90
2023-03-04T21:04:45.194Z,3.80
2023-03-04T21:07:13.544Z,2.00
2023-03-04T21:09:42.102Z,3.40
2023-03-04T21:12:11.038Z,1.70
2023-03-04T21:14:45.670Z,2.20
2023-03-04T21:17:14.567Z,2.10
2023-03-04T21:19:46.078Z,0.90
2023-03-04T21:22:16.164Z,1.80
2023-03-04T21:24:45.140Z,2.30
2023-03-04T21:27:15.210Z,2.00
2023-03-04T21:29:44.566Z,1.10
2023-03-04T21:32:39.212Z,1.20
2023-03-04T21:35:08.042Z,1.20
2023-03-04T21:37:36.489Z,3.30
2023-03-04T21:40:06.436Z,1.50
2023-03-04T21:42:35.259Z,2.10
2023-03-04T21:45:06.223Z,1.80
2023-03-04T21:47:34.941Z,1.40
2023-03-04T21:50:03.838Z,1.50
2023-03-04T21:52:32.605Z,1.40
2023-03-04T21:55:01.345Z,1.40
2023-03-04T21:57:29.894Z,1.10
2023-03-04T21:59:58.958Z,1.50
2023-03-04T22:02:27.373Z,1.50
2023-03-04T22:04:55.884Z,1.00
2023-03-04T22:07:24.156Z,1.40
2023-03-04T22:09:54.560Z,1.00
2023-03-04T22:12:22.887Z,0.70
2023-03-04T22:14:51.275Z,1.50
2023-03-04T22:17:20.191Z,3.30
2023-03-04T22:19:49.520Z,1.20
2023-03-04T22:22:20.410Z,1.50
2023-03-04T22:24:49.161Z,1.90
2023-03-04T22:27:17.762Z,0.90
2023-03-04T22:29:46.691Z,1.10
2023-03-04T22:32:15.769Z,0.90
2023-03-04T22:34:46.547Z,1.40
2023-03-04T22:37:15.082Z,0.80
2023-03-04T22:39:43.490Z,1.10
2023-03-04T22:42:12.176Z,0.90
2023-03-04T22:44:40.453Z,1.40
2023-03-04T22:47:08.707Z,0.90
2023-03-04T22:49:38.066Z,0.70
2023-03-04T22:52:07.615Z,1.00
2023-03-04T22:54:35.895Z,0.90
2023-03-04T22:57:04.333Z,0.50
2023-03-04T22:59:32.777Z,3.20
2023-03-04T23:02:03.847Z,1.50
2023-03-04T23:04:33.907Z,0.90
2023-03-04T23:07:02.353Z,0.80
2023-03-04T23:09:30.809Z,0.70
2023-03-04T23:11:59.240Z,1.10
2023-03-04T23:14:27.810Z,1.10
2023-03-04T23:16:56.334Z,0.80
2023-03-04T23:19:26.000Z,0.70
2023-03-04T23:21:57.475Z,0.50
2023-03-04T23:24:26.878Z,1.60
2023-03-04T23:26:55.187Z,0.90
2023-03-04T23:29:23.517Z,0.30
2023-03-04T23:31:52.084Z,0.50
2023-03-04T23:34:20.380Z,0.60
2023-03-04T23:36:48.814Z,2.60
2023-03-04T23:39:17.193Z,0.30
2023-03-04T23:41:45.655Z,1.00
2023-03-04T23:44:14.414Z,0.70
2023-03-04T23:46:42.932Z,0.80
2023-03-04T23:49:12.789Z,0.70
2023-03-04T23:51:41.242Z,2.50
2023-03-04T23:54:09.731Z,1.10
2023-03-04T23:56:38.347Z,0.40
2023-03-04T23:59:12.039Z,0.60
